Terminal Aerodrome Forecast
Issued by NWS Cleveland, OH

Home | Current Version | Previous Version | Text Only | Print | Product List | Glossary Off
Versions: 1 2 3 4 5 6 7 8 9 10 11 12 13 14 15 16 17 18 19

287
FTUS41 KCLE 201120
TAFCAK
TAF
KCAK 201120Z 2012/2112 29006KT P6SM OVC008
     FM201500 34005KT P6SM OVC015
      TEMPO 2015/2016 OVC007
     FM201700 34005KT P6SM BKN025
     FM202000 36006KT P6SM BKN035=

USA.gov is the U.S. government's official web portal to all federal, state and local government web resources and services.